sensor_id;sensor_type;location;lat;lon;timestamp;temperature;humidity
26952;DHT22;14507;52.418;13.398;2023-08-08T00:00:18;14.70;99.90
26952;DHT22;14507;52.418;13.398;2023-08-08T00:02:43;14.60;99.90
26952;DHT22;14507;52.418;13.398;2023-08-08T00:05:09;14.60;99.90
26952;DHT22;14507;52.418;13.398;2023-08-08T00:07:35;14.60;99.90
26952;DHT22;14507;52.418;13.398;2023-08-08T00:10:00;14.50;99.90
26952;DHT22;14507;52.418;13.398;2023-08-08T00:12:26;14.50;99.90
26952;DHT22;14507;52.418;13.398;2023-08-08T00:14:52;14.50;99.90
26952;DHT22;14507;52.418;13.398;2023-08-08T00:17:17;14.50;99.90
26952;DHT22;14507;52.418;13.398;2023-08-08T00:19:43;14.40;99.90
26952;DHT22;14507;52.418;13.398;2023-08-08T00:22:08;14.40;99.90
26952;DHT22;14507;52.418;13.398;2023-08-08T00:24:34;14.40;99.90
26952;DHT22;14507;52.418;13.398;2023-08-08T00:27:00;14.40;99.90
26952;DHT22;14507;52.418;13.398;2023-08-08T00:29:25;14.30;99.90
26952;DHT22;14507;52.418;13.398;2023-08-08T00:31:51;14.30;99.90
26952;DHT22;14507;52.418;13.398;2023-08-08T00:34:17;14.20;99.90
26952;DHT22;14507;52.418;13.398;2023-08-08T00:36:42;14.20;99.90
26952;DHT22;14507;52.418;13.398;2023-08-08T00:39:08;14.20;99.90
26952;DHT22;14507;52.418;13.398;2023-08-08T00:41:33;14.20;99.90
26952;DHT22;14507;52.418;13.398;2023-08-08T00:43:59;14.20;99.90
26952;DHT22;14507;52.418;13.398;2023-08-08T00:46:25;14.10;99.90
26952;DHT22;14507;52.418;13.398;2023-08-08T00:48:51;14.10;99.90
26952;DHT22;14507;52.418;13.398;2023-08-08T00:51:18;14.10;99.90
26952;DHT22;14507;52.418;13.398;2023-08-08T00:53:44;14.10;99.90
26952;DHT22;14507;52.418;13.398;2023-08-08T00:56:13;14.10;99.90
26952;DHT22;14507;52.418;13.398;2023-08-08T00:58:39;14.10;99.90
26952;DHT22;14507;52.418;13.398;2023-08-08T01:01:05;14.00;99.90
26952;DHT22;14507;52.418;13.398;2023-08-08T01:03:31;14.00;99.90
26952;DHT22;14507;52.418;13.398;2023-08-08T01:06:06;14.00;99.90
26952;DHT22;14507;52.418;13.398;2023-08-08T01:08:40;14.00;99.90
26952;DHT22;14507;52.418;13.398;2023-08-08T01:11:08;13.90;99.90
26952;DHT22;14507;52.418;13.398;2023-08-08T01:13:34;13.90;99.90
26952;DHT22;14507;52.418;13.398;2023-08-08T01:16:01;13.90;99.90
26952;DHT22;14507;52.418;13.398;2023-08-08T01:18:29;13.80;99.90
26952;DHT22;14507;52.418;13.398;2023-08-08T01:20:56;13.80;99.90
26952;DHT22;14507;52.418;13.398;2023-08-08T01:23:34;13.90;99.90
26952;DHT22;14507;52.418;13.398;2023-08-08T01:26:03;13.80;99.90
26952;DHT22;14507;52.418;13.398;2023-08-08T01:28:28;13.80;99.90
26952;DHT22;14507;52.418;13.398;2023-08-08T01:30:54;13.80;99.90
26952;DHT22;14507;52.418;13.398;2023-08-08T01:33:20;13.70;99.90
26952;DHT22;14507;52.418;13.398;2023-08-08T01:35:50;13.70;99.90
26952;DHT22;14507;52.418;13.398;2023-08-08T01:38:20;13.70;99.90
26952;DHT22;14507;52.418;13.398;2023-08-08T01:40:47;13.70;99.90
26952;DHT22;14507;52.418;13.398;2023-08-08T01:43:15;13.60;99.90
26952;DHT22;14507;52.418;13.398;2023-08-08T01:45:41;13.60;99.90
26952;DHT22;14507;52.418;13.398;2023-08-08T01:48:09;13.60;99.90
26952;DHT22;14507;52.418;13.398;2023-08-08T01:50:35;13.60;99.90
26952;DHT22;14507;52.418;13.398;2023-08-08T01:53:01;13.60;99.90
26952;DHT22;14507;52.418;13.398;2023-08-08T01:55:27;13.60;99.90
26952;DHT22;14507;52.418;13.398;2023-08-08T01:57:53;13.50;99.90
26952;DHT22;14507;52.418;13.398;2023-08-08T02:00:18;13.50;99.90
26952;DHT22;14507;52.418;13.398;2023-08-08T02:02:44;13.50;99.90
26952;DHT22;14507;52.418;13.398;2023-08-08T02:05:10;13.50;99.90
26952;DHT22;14507;52.418;13.398;2023-08-08T02:07:35;13.40;99.90
26952;DHT22;14507;52.418;13.398;2023-08-08T02:10:01;13.40;99.90
26952;DHT22;14507;52.418;13.398;2023-08-08T02:12:27;13.40;99.90
26952;DHT22;14507;52.418;13.398;2023-08-08T02:14:54;13.40;99.90
26952;DHT22;14507;52.418;13.398;2023-08-08T02:17:21;13.40;99.90
26952;DHT22;14507;52.418;13.398;2023-08-08T02:19:46;13.40;99.90
26952;DHT22;14507;52.418;13.398;2023-08-08T02:22:12;13.40;99.90
26952;DHT22;14507;52.418;13.398;2023-08-08T02:24:37;13.40;99.90
26952;DHT22;14507;52.418;13.398;2023-08-08T02:27:03;13.30;99.90
26952;DHT22;14507;52.418;13.398;2023-08-08T02:29:30;13.30;99.90
26952;DHT22;14507;52.418;13.398;2023-08-08T02:31:55;13.30;99.90
26952;DHT22;14507;52.418;13.398;2023-08-08T02:34:21;13.30;99.90
26952;DHT22;14507;52.418;13.398;2023-08-08T02:36:47;13.30;99.90
26952;DHT22;14507;52.418;13.398;2023-08-08T02:39:12;13.30;99.90
26952;DHT22;14507;52.418;13.398;2023-08-08T02:41:38;13.30;99.90
26952;DHT22;14507;52.418;13.398;2023-08-08T02:44:03;13.60;99.90
26952;DHT22;14507;52.418;13.398;2023-08-08T02:46:29;13.20;99.90
26952;DHT22;14507;52.418;13.398;2023-08-08T02:48:55;13.30;99.90
26952;DHT22;14507;52.418;13.398;2023-08-08T02:51:20;13.30;99.90
26952;DHT22;14507;52.418;13.398;2023-08-08T02:53:46;13.20;99.90
26952;DHT22;14507;52.418;13.398;2023-08-08T02:56:11;13.30;99.90
26952;DHT22;14507;52.418;13.398;2023-08-08T02:58:37;13.30;99.90
26952;DHT22;14507;52.418;13.398;2023-08-08T03:01:02;13.20;99.90
26952;DHT22;14507;52.418;13.398;2023-08-08T03:03:28;13.20;99.90
26952;DHT22;14507;52.418;13.398;2023-08-08T03:05:54;13.20;99.90
26952;DHT22;14507;52.418;13.398;2023-08-08T03:08:19;13.20;99.90
26952;DHT22;14507;52.418;13.398;2023-08-08T03:10:45;13.20;99.90
26952;DHT22;14507;52.418;13.398;2023-08-08T03:13:10;13.20;99.90
26952;DHT22;14507;52.418;13.398;2023-08-08T03:15:36;13.20;99.90
26952;DHT22;14507;52.418;13.398;2023-08-08T03:18:02;13.20;99.90
26952;DHT22;14507;52.418;13.398;2023-08-08T03:20:28;13.20;99.90
26952;DHT22;14507;52.418;13.398;2023-08-08T03:22:54;13.20;99.90
26952;DHT22;14507;52.418;13.398;2023-08-08T03:25:20;13.20;99.90
26952;DHT22;14507;52.418;13.398;2023-08-08T03:27:46;13.20;99.90
26952;DHT22;14507;52.418;13.398;2023-08-08T03:30:12;13.20;99.90
26952;DHT22;14507;52.418;13.398;2023-08-08T03:32:37;13.20;99.90
26952;DHT22;14507;52.418;13.398;2023-08-08T03:35:03;13.20;99.90
26952;DHT22;14507;52.418;13.398;2023-08-08T03:37:29;13.10;99.90
26952;DHT22;14507;52.418;13.398;2023-08-08T03:39:58;13.10;99.90
26952;DHT22;14507;52.418;13.398;2023-08-08T03:42:24;13.10;99.90
26952;DHT22;14507;52.418;13.398;2023-08-08T03:44:49;13.10;99.90
26952;DHT22;14507;52.418;13.398;2023-08-08T03:47:15;13.10;99.90
26952;DHT22;14507;52.418;13.398;2023-08-08T03:49:41;13.10;99.90
26952;DHT22;14507;52.418;13.398;2023-08-08T03:52:07;13.10;99.90
26952;DHT22;14507;52.418;13.398;2023-08-08T03:54:32;13.10;99.90
26952;DHT22;14507;52.418;13.398;2023-08-08T03:56:58;13.00;99.90
26952;DHT22;14507;52.418;13.398;2023-08-08T03:59:23;13.00;99.90
26952;DHT22;14507;52.418;13.398;2023-08-08T04:01:49;13.00;99.90
26952;DHT22;14507;52.418;13.398;2023-08-08T04:04:15;12.70;99.90
26952;DHT22;14507;52.418;13.398;2023-08-08T04:06:40;13.00;99.90
26952;DHT22;14507;52.418;13.398;2023-08-08T04:09:06;13.10;99.90
26952;DHT22;14507;52.418;13.398;2023-08-08T04:11:32;13.10;99.90
26952;DHT22;14507;52.418;13.398;2023-08-08T04:13:58;13.10;99.90
26952;DHT22;14507;52.418;13.398;2023-08-08T04:16:23;13.20;99.90
26952;DHT22;14507;52.418;13.398;2023-08-08T04:18:49;13.30;99.90
26952;DHT22;14507;52.418;13.398;2023-08-08T04:21:15;13.30;99.90
26952;DHT22;14507;52.418;13.398;2023-08-08T04:23:40;13.40;99.90
26952;DHT22;14507;52.418;13.398;2023-08-08T04:26:06;13.40;99.90
26952;DHT22;14507;52.418;13.398;2023-08-08T04:28:32;13.50;99.90
26952;DHT22;14507;52.418;13.398;2023-08-08T04:30:57;13.50;99.90
26952;DHT22;14507;52.418;13.398;2023-08-08T04:33:23;13.50;99.90
26952;DHT22;14507;52.418;13.398;2023-08-08T04:35:48;13.50;99.90
26952;DHT22;14507;52.418;13.398;2023-08-08T04:38:15;13.60;99.90
26952;DHT22;14507;52.418;13.398;2023-08-08T04:40:43;13.60;99.90
26952;DHT22;14507;52.418;13.398;2023-08-08T04:43:09;13.60;99.90
26952;DHT22;14507;52.418;13.398;2023-08-08T04:45:35;13.70;99.90
26952;DHT22;14507;52.418;13.398;2023-08-08T04:48:00;13.80;99.90
26952;DHT22;14507;52.418;13.398;2023-08-08T04:50:26;14.00;99.90
26952;DHT22;14507;52.418;13.398;2023-08-08T04:52:52;14.20;99.90
26952;DHT22;14507;52.418;13.398;2023-08-08T04:55:17;14.30;99.90
26952;DHT22;14507;52.418;13.398;2023-08-08T04:57:43;14.40;99.90
26952;DHT22;14507;52.418;13.398;2023-08-08T05:00:09;14.40;99.90
26952;DHT22;14507;52.418;13.398;2023-08-08T05:02:35;14.40;99.90
26952;DHT22;14507;52.418;13.398;2023-08-08T05:05:01;14.50;99.90
26952;DHT22;14507;52.418;13.398;2023-08-08T05:07:27;14.60;99.90
26952;DHT22;14507;52.418;13.398;2023-08-08T05:09:53;14.70;99.90
26952;DHT22;14507;52.418;13.398;2023-08-08T05:12:18;14.70;99.90
26952;DHT22;14507;52.418;13.398;2023-08-08T05:14:44;14.80;99.90
26952;DHT22;14507;52.418;13.398;2023-08-08T05:17:10;14.90;99.90
26952;DHT22;14507;52.418;13.398;2023-08-08T05:19:35;15.20;99.90
26952;DHT22;14507;52.418;13.398;2023-08-08T05:22:01;15.50;99.90
26952;DHT22;14507;52.418;13.398;2023-08-08T05:24:27;15.60;99.90
26952;DHT22;14507;52.418;13.398;2023-08-08T05:26:52;15.70;99.90
26952;DHT22;14507;52.418;13.398;2023-08-08T05:29:19;15.80;99.90
26952;DHT22;14507;52.418;13.398;2023-08-08T05:31:46;15.70;99.90
26952;DHT22;14507;52.418;13.398;2023-08-08T05:34:12;15.80;99.90
26952;DHT22;14507;52.418;13.398;2023-08-08T05:36:37;16.10;99.90
26952;DHT22;14507;52.418;13.398;2023-08-08T05:39:03;16.30;99.90
26952;DHT22;14507;52.418;13.398;2023-08-08T05:41:29;16.40;99.90
26952;DHT22;14507;52.418;13.398;2023-08-08T05:43:54;16.80;99.90
26952;DHT22;14507;52.418;13.398;2023-08-08T05:46:20;17.10;99.90
26952;DHT22;14507;52.418;13.398;2023-08-08T05:48:46;17.30;99.90
26952;DHT22;14507;52.418;13.398;2023-08-08T05:51:12;17.30;99.90
26952;DHT22;14507;52.418;13.398;2023-08-08T05:53:38;17.10;99.90
26952;DHT22;14507;52.418;13.398;2023-08-08T05:56:04;17.00;99.90
26952;DHT22;14507;52.418;13.398;2023-08-08T05:58:29;16.80;99.90
26952;DHT22;14507;52.418;13.398;2023-08-08T06:00:55;16.70;99.90
26952;DHT22;14507;52.418;13.398;2023-08-08T06:03:21;16.60;99.90
26952;DHT22;14507;52.418;13.398;2023-08-08T06:05:46;16.50;99.90
26952;DHT22;14507;52.418;13.398;2023-08-08T06:08:12;16.40;99.90
26952;DHT22;14507;52.418;13.398;2023-08-08T06:10:39;16.40;99.90
26952;DHT22;14507;52.418;13.398;2023-08-08T06:13:04;16.40;99.90
26952;DHT22;14507;52.418;13.398;2023-08-08T06:15:30;16.30;99.90
26952;DHT22;14507;52.418;13.398;2023-08-08T06:17:56;16.20;99.90
26952;DHT22;14507;52.418;13.398;2023-08-08T06:20:22;16.10;99.90
26952;DHT22;14507;52.418;13.398;2023-08-08T06:22:49;16.10;99.90
26952;DHT22;14507;52.418;13.398;2023-08-08T06:25:14;16.00;99.90
26952;DHT22;14507;52.418;13.398;2023-08-08T06:27:40;15.90;99.90
26952;DHT22;14507;52.418;13.398;2023-08-08T06:30:06;15.90;99.90
26952;DHT22;14507;52.418;13.398;2023-08-08T06:32:34;15.90;99.90
26952;DHT22;14507;52.418;13.398;2023-08-08T06:34:59;15.80;99.90
26952;DHT22;14507;52.418;13.398;2023-08-08T06:37:25;15.80;99.90
26952;DHT22;14507;52.418;13.398;2023-08-08T06:39:50;15.80;99.90
26952;DHT22;14507;52.418;13.398;2023-08-08T06:42:16;15.80;99.90
26952;DHT22;14507;52.418;13.398;2023-08-08T06:44:43;15.80;99.90
26952;DHT22;14507;52.418;13.398;2023-08-08T06:47:09;15.90;99.90
26952;DHT22;14507;52.418;13.398;2023-08-08T06:49:35;16.00;99.90
26952;DHT22;14507;52.418;13.398;2023-08-08T06:52:00;16.10;99.90
26952;DHT22;14507;52.418;13.398;2023-08-08T06:54:26;16.30;99.90
26952;DHT22;14507;52.418;13.398;2023-08-08T06:56:53;16.40;99.90
26952;DHT22;14507;52.418;13.398;2023-08-08T06:59:21;16.40;99.90
26952;DHT22;14507;52.418;13.398;2023-08-08T07:01:48;16.50;99.90
26952;DHT22;14507;52.418;13.398;2023-08-08T07:04:14;16.50;99.90
26952;DHT22;14507;52.418;13.398;2023-08-08T07:06:39;16.60;99.90
26952;DHT22;14507;52.418;13.398;2023-08-08T07:09:05;16.80;99.90
26952;DHT22;14507;52.418;13.398;2023-08-08T07:11:31;17.00;99.90
26952;DHT22;14507;52.418;13.398;2023-08-08T07:13:57;17.60;99.90
26952;DHT22;14507;52.418;13.398;2023-08-08T07:16:22;18.40;99.90
26952;DHT22;14507;52.418;13.398;2023-08-08T07:18:48;19.20;99.90
26952;DHT22;14507;52.418;13.398;2023-08-08T07:21:14;19.80;99.90
26952;DHT22;14507;52.418;13.398;2023-08-08T07:23:40;20.00;99.40
26952;DHT22;14507;52.418;13.398;2023-08-08T07:26:06;20.20;99.70
26952;DHT22;14507;52.418;13.398;2023-08-08T07:28:31;20.40;99.00
26952;DHT22;14507;52.418;13.398;2023-08-08T07:30:58;20.60;99.10
26952;DHT22;14507;52.418;13.398;2023-08-08T07:33:23;20.50;98.20
26952;DHT22;14507;52.418;13.398;2023-08-08T07:35:49;20.30;98.80
26952;DHT22;14507;52.418;13.398;2023-08-08T07:38:15;20.30;98.70
26952;DHT22;14507;52.418;13.398;2023-08-08T07:40:41;20.00;99.20
26952;DHT22;14507;52.418;13.398;2023-08-08T07:43:07;19.60;99.80
26952;DHT22;14507;52.418;13.398;2023-08-08T07:45:32;19.30;99.90
26952;DHT22;14507;52.418;13.398;2023-08-08T07:47:58;20.20;99.90
26952;DHT22;14507;52.418;13.398;2023-08-08T07:50:24;19.10;99.90
26952;DHT22;14507;52.418;13.398;2023-08-08T07:52:49;18.90;99.90
26952;DHT22;14507;52.418;13.398;2023-08-08T07:55:15;18.80;99.90
26952;DHT22;14507;52.418;13.398;2023-08-08T07:57:40;18.70;99.90
26952;DHT22;14507;52.418;13.398;2023-08-08T08:00:06;18.80;99.90
26952;DHT22;14507;52.418;13.398;2023-08-08T08:02:36;19.00;99.90
26952;DHT22;14507;52.418;13.398;2023-08-08T08:05:02;19.00;99.90
26952;DHT22;14507;52.418;13.398;2023-08-08T08:07:31;19.10;99.90
26952;DHT22;14507;52.418;13.398;2023-08-08T08:09:58;19.20;99.90
26952;DHT22;14507;52.418;13.398;2023-08-08T08:12:23;19.50;99.90
26952;DHT22;14507;52.418;13.398;2023-08-08T08:14:49;19.70;99.70
26952;DHT22;14507;52.418;13.398;2023-08-08T08:17:14;19.70;99.80
26952;DHT22;14507;52.418;13.398;2023-08-08T08:19:40;19.70;99.70
26952;DHT22;14507;52.418;13.398;2023-08-08T08:22:06;19.70;99.80
26952;DHT22;14507;52.418;13.398;2023-08-08T08:24:31;19.80;99.40
26952;DHT22;14507;52.418;13.398;2023-08-08T08:26:57;19.90;99.80
26952;DHT22;14507;52.418;13.398;2023-08-08T08:29:22;20.10;99.10
26952;DHT22;14507;52.418;13.398;2023-08-08T08:31:48;20.20;98.90
26952;DHT22;14507;52.418;13.398;2023-08-08T08:34:13;20.20;98.50
26952;DHT22;14507;52.418;13.398;2023-08-08T08:36:39;20.40;98.60
26952;DHT22;14507;52.418;13.398;2023-08-08T08:39:05;20.60;98.20
26952;DHT22;14507;52.418;13.398;2023-08-08T08:41:31;21.20;98.00
26952;DHT22;14507;52.418;13.398;2023-08-08T08:44:01;21.40;97.20
26952;DHT22;14507;52.418;13.398;2023-08-08T08:46:27;21.30;96.60
26952;DHT22;14507;52.418;13.398;2023-08-08T08:48:55;21.00;97.30
26952;DHT22;14507;52.418;13.398;2023-08-08T08:51:22;20.80;97.90
26952;DHT22;14507;52.418;13.398;2023-08-08T08:53:47;20.70;97.90
26952;DHT22;14507;52.418;13.398;2023-08-08T08:56:16;20.70;98.20
26952;DHT22;14507;52.418;13.398;2023-08-08T08:58:43;20.60;98.20
26952;DHT22;14507;52.418;13.398;2023-08-08T09:01:11;20.40;98.00
26952;DHT22;14507;52.418;13.398;2023-08-08T09:03:37;20.10;98.60
26952;DHT22;14507;52.418;13.398;2023-08-08T09:06:04;20.00;98.10
26952;DHT22;14507;52.418;13.398;2023-08-08T09:08:30;20.00;98.40
26952;DHT22;14507;52.418;13.398;2023-08-08T09:10:56;19.90;98.60
26952;DHT22;14507;52.418;13.398;2023-08-08T09:13:22;19.90;99.10
26952;DHT22;14507;52.418;13.398;2023-08-08T09:15:51;20.00;99.10
26952;DHT22;14507;52.418;13.398;2023-08-08T09:18:17;20.20;98.60
26952;DHT22;14507;52.418;13.398;2023-08-08T09:20:49;20.50;98.30
26952;DHT22;14507;52.418;13.398;2023-08-08T09:23:15;20.80;97.80
26952;DHT22;14507;52.418;13.398;2023-08-08T09:25:40;21.20;97.10
26952;DHT22;14507;52.418;13.398;2023-08-08T09:28:06;21.60;96.30
26952;DHT22;14507;52.418;13.398;2023-08-08T09:30:31;21.80;95.70
26952;DHT22;14507;52.418;13.398;2023-08-08T09:33:01;21.90;95.20
26952;DHT22;14507;52.418;13.398;2023-08-08T09:35:28;22.00;95.80
26952;DHT22;14507;52.418;13.398;2023-08-08T09:37:55;22.00;95.10
26952;DHT22;14507;52.418;13.398;2023-08-08T09:40:22;22.00;95.10
26952;DHT22;14507;52.418;13.398;2023-08-08T09:42:51;22.10;95.30
26952;DHT22;14507;52.418;13.398;2023-08-08T09:45:18;22.20;94.10
26952;DHT22;14507;52.418;13.398;2023-08-08T09:47:43;22.30;94.60
26952;DHT22;14507;52.418;13.398;2023-08-08T09:50:09;22.30;94.50
26952;DHT22;14507;52.418;13.398;2023-08-08T09:52:35;22.40;94.00
26952;DHT22;14507;52.418;13.398;2023-08-08T09:55:05;22.30;94.30
26952;DHT22;14507;52.418;13.398;2023-08-08T09:57:32;22.40;93.30
26952;DHT22;14507;52.418;13.398;2023-08-08T09:59:58;22.30;93.90
26952;DHT22;14507;52.418;13.398;2023-08-08T10:02:24;22.20;93.90
26952;DHT22;14507;52.418;13.398;2023-08-08T10:04:50;22.00;94.60
26952;DHT22;14507;52.418;13.398;2023-08-08T10:07:16;21.80;94.70
26952;DHT22;14507;52.418;13.398;2023-08-08T10:09:41;21.60;95.10
26952;DHT22;14507;52.418;13.398;2023-08-08T10:12:08;21.40;95.70
26952;DHT22;14507;52.418;13.398;2023-08-08T10:14:41;21.10;95.50
26952;DHT22;14507;52.418;13.398;2023-08-08T10:17:07;20.90;96.10
26952;DHT22;14507;52.418;13.398;2023-08-08T10:19:33;20.80;96.20
26952;DHT22;14507;52.418;13.398;2023-08-08T10:22:04;20.80;96.80
26952;DHT22;14507;52.418;13.398;2023-08-08T10:24:36;21.00;96.70
26952;DHT22;14507;52.418;13.398;2023-08-08T10:27:03;21.10;95.20
26952;DHT22;14507;52.418;13.398;2023-08-08T10:29:31;21.30;95.90
26952;DHT22;14507;52.418;13.398;2023-08-08T10:32:05;21.60;95.10
26952;DHT22;14507;52.418;13.398;2023-08-08T10:34:42;21.80;94.60
26952;DHT22;14507;52.418;13.398;2023-08-08T10:37:15;21.90;93.30
26952;DHT22;14507;52.418;13.398;2023-08-08T10:40:10;21.70;96.90
26952;DHT22;14507;52.418;13.398;2023-08-08T10:42:45;21.10;99.90
26952;DHT22;14507;52.418;13.398;2023-08-08T10:45:13;20.70;99.90
26952;DHT22;14507;52.418;13.398;2023-08-08T10:47:40;20.30;99.90
26952;DHT22;14507;52.418;13.398;2023-08-08T10:50:07;20.00;99.90
26952;DHT22;14507;52.418;13.398;2023-08-08T10:52:49;19.70;99.90
26952;DHT22;14507;52.418;13.398;2023-08-08T10:55:25;19.50;99.90
26952;DHT22;14507;52.418;13.398;2023-08-08T10:58:06;19.40;99.90
26952;DHT22;14507;52.418;13.398;2023-08-08T11:00:34;19.30;99.90
26952;DHT22;14507;52.418;13.398;2023-08-08T11:03:01;19.30;99.90
26952;DHT22;14507;52.418;13.398;2023-08-08T11:05:37;19.30;99.90
26952;DHT22;14507;52.418;13.398;2023-08-08T11:08:04;19.30;99.90
26952;DHT22;14507;52.418;13.398;2023-08-08T11:10:40;19.50;99.90
26952;DHT22;14507;52.418;13.398;2023-08-08T11:13:07;19.90;99.90
26952;DHT22;14507;52.418;13.398;2023-08-08T11:15:34;20.20;99.90
26952;DHT22;14507;52.418;13.398;2023-08-08T11:18:00;20.40;99.90
26952;DHT22;14507;52.418;13.398;2023-08-08T11:20:30;20.50;99.90
26952;DHT22;14507;52.418;13.398;2023-08-08T11:22:57;20.50;99.90
26952;DHT22;14507;52.418;13.398;2023-08-08T11:25:25;20.40;99.90
26952;DHT22;14507;52.418;13.398;2023-08-08T11:27:55;20.40;99.90
26952;DHT22;14507;52.418;13.398;2023-08-08T11:30:22;20.50;99.90
26952;DHT22;14507;52.418;13.398;2023-08-08T11:32:49;20.50;99.90
26952;DHT22;14507;52.418;13.398;2023-08-08T11:35:22;20.30;99.90
26952;DHT22;14507;52.418;13.398;2023-08-08T11:37:48;20.10;99.90
26952;DHT22;14507;52.418;13.398;2023-08-08T11:40:15;19.80;99.90
26952;DHT22;14507;52.418;13.398;2023-08-08T11:42:41;19.40;99.90
26952;DHT22;14507;52.418;13.398;2023-08-08T11:45:14;19.10;99.90
26952;DHT22;14507;52.418;13.398;2023-08-08T11:47:40;18.70;99.90
26952;DHT22;14507;52.418;13.398;2023-08-08T11:50:08;18.50;99.90
26952;DHT22;14507;52.418;13.398;2023-08-08T11:52:39;18.30;99.90
26952;DHT22;14507;52.418;13.398;2023-08-08T11:55:09;18.40;99.90
26952;DHT22;14507;52.418;13.398;2023-08-08T11:57:36;18.50;99.90
26952;DHT22;14507;52.418;13.398;2023-08-08T12:00:07;18.60;99.90
26952;DHT22;14507;52.418;13.398;2023-08-08T12:02:34;18.80;99.90
26952;DHT22;14507;52.418;13.398;2023-08-08T12:05:05;18.90;99.90
26952;DHT22;14507;52.418;13.398;2023-08-08T12:07:35;19.10;99.90
26952;DHT22;14507;52.418;13.398;2023-08-08T12:10:02;19.30;99.90
26952;DHT22;14507;52.418;13.398;2023-08-08T12:12:28;19.50;99.90
26952;DHT22;14507;52.418;13.398;2023-08-08T12:14:56;19.60;99.90
26952;DHT22;14507;52.418;13.398;2023-08-08T12:17:22;19.70;99.90
26952;DHT22;14507;52.418;13.398;2023-08-08T12:19:48;19.90;99.90
26952;DHT22;14507;52.418;13.398;2023-08-08T12:22:14;20.00;99.90
26952;DHT22;14507;52.418;13.398;2023-08-08T12:24:40;20.20;99.90
26952;DHT22;14507;52.418;13.398;2023-08-08T12:27:06;20.30;99.90
26952;DHT22;14507;52.418;13.398;2023-08-08T12:29:31;20.40;99.90
26952;DHT22;14507;52.418;13.398;2023-08-08T12:31:57;20.40;99.90
26952;DHT22;14507;52.418;13.398;2023-08-08T12:34:23;20.20;99.90
26952;DHT22;14507;52.418;13.398;2023-08-08T12:36:48;20.00;99.90
26952;DHT22;14507;52.418;13.398;2023-08-08T12:39:14;19.80;99.90
26952;DHT22;14507;52.418;13.398;2023-08-08T12:41:40;19.70;99.90
26952;DHT22;14507;52.418;13.398;2023-08-08T12:44:06;19.50;99.90
26952;DHT22;14507;52.418;13.398;2023-08-08T12:46:33;19.50;99.90
26952;DHT22;14507;52.418;13.398;2023-08-08T12:48:59;19.70;99.90
26952;DHT22;14507;52.418;13.398;2023-08-08T12:51:24;19.90;99.90
26952;DHT22;14507;52.418;13.398;2023-08-08T12:53:50;20.10;99.90
26952;DHT22;14507;52.418;13.398;2023-08-08T12:56:16;20.20;99.90
26952;DHT22;14507;52.418;13.398;2023-08-08T12:58:42;20.30;99.90
26952;DHT22;14507;52.418;13.398;2023-08-08T13:01:07;20.40;99.90
26952;DHT22;14507;52.418;13.398;2023-08-08T13:03:33;20.40;99.70
26952;DHT22;14507;52.418;13.398;2023-08-08T13:06:00;20.50;99.90
26952;DHT22;14507;52.418;13.398;2023-08-08T13:08:25;20.60;99.10
26952;DHT22;14507;52.418;13.398;2023-08-08T13:10:51;20.80;98.20
26952;DHT22;14507;52.418;13.398;2023-08-08T13:13:17;20.90;98.20
26952;DHT22;14507;52.418;13.398;2023-08-08T13:15:42;21.10;97.20
26952;DHT22;14507;52.418;13.398;2023-08-08T13:18:09;21.20;96.80
26952;DHT22;14507;52.418;13.398;2023-08-08T13:20:34;21.40;97.20
26952;DHT22;14507;52.418;13.398;2023-08-08T13:23:00;21.50;96.60
26952;DHT22;14507;52.418;13.398;2023-08-08T13:25:25;21.50;95.80
26952;DHT22;14507;52.418;13.398;2023-08-08T13:27:51;21.50;96.40
26952;DHT22;14507;52.418;13.398;2023-08-08T13:30:17;21.60;97.50
26952;DHT22;14507;52.418;13.398;2023-08-08T13:32:42;21.60;96.30
26952;DHT22;14507;52.418;13.398;2023-08-08T13:35:08;21.60;96.20
26952;DHT22;14507;52.418;13.398;2023-08-08T13:37:34;21.60;95.10
26952;DHT22;14507;52.418;13.398;2023-08-08T13:40:00;21.60;95.80
26952;DHT22;14507;52.418;13.398;2023-08-08T13:42:25;21.50;94.90
26952;DHT22;14507;52.418;13.398;2023-08-08T13:44:51;21.40;94.30
26952;DHT22;14507;52.418;13.398;2023-08-08T13:47:16;21.20;96.30
26952;DHT22;14507;52.418;13.398;2023-08-08T13:49:42;20.90;95.50
26952;DHT22;14507;52.418;13.398;2023-08-08T13:52:08;20.60;96.00
26952;DHT22;14507;52.418;13.398;2023-08-08T13:54:34;20.30;96.20
26952;DHT22;14507;52.418;13.398;2023-08-08T13:57:00;20.10;95.40
26952;DHT22;14507;52.418;13.398;2023-08-08T13:59:26;20.00;95.60
26952;DHT22;14507;52.418;13.398;2023-08-08T14:01:52;19.80;95.40
26952;DHT22;14507;52.418;13.398;2023-08-08T14:04:17;19.50;99.90
26952;DHT22;14507;52.418;13.398;2023-08-08T14:06:44;19.50;94.90
26952;DHT22;14507;52.418;13.398;2023-08-08T14:09:10;19.40;95.40
26952;DHT22;14507;52.418;13.398;2023-08-08T14:11:36;19.40;96.10
26952;DHT22;14507;52.418;13.398;2023-08-08T14:14:04;19.30;94.70
26952;DHT22;14507;52.418;13.398;2023-08-08T14:16:30;19.30;94.90
26952;DHT22;14507;52.418;13.398;2023-08-08T14:18:55;19.30;94.60
26952;DHT22;14507;52.418;13.398;2023-08-08T14:21:21;19.30;95.80
26952;DHT22;14507;52.418;13.398;2023-08-08T14:23:47;19.40;94.60
26952;DHT22;14507;52.418;13.398;2023-08-08T14:26:13;19.40;95.70
26952;DHT22;14507;52.418;13.398;2023-08-08T14:28:38;19.60;97.20
26952;DHT22;14507;52.418;13.398;2023-08-08T14:31:04;19.80;96.40
26952;DHT22;14507;52.418;13.398;2023-08-08T14:33:32;19.90;95.60
26952;DHT22;14507;52.418;13.398;2023-08-08T14:35:58;20.00;95.90
26952;DHT22;14507;52.418;13.398;2023-08-08T14:38:24;20.00;95.90
26952;DHT22;14507;52.418;13.398;2023-08-08T14:40:51;20.00;95.80
26952;DHT22;14507;52.418;13.398;2023-08-08T14:43:18;20.10;95.20
26952;DHT22;14507;52.418;13.398;2023-08-08T14:45:44;20.10;95.20
26952;DHT22;14507;52.418;13.398;2023-08-08T14:48:09;20.20;96.00
26952;DHT22;14507;52.418;13.398;2023-08-08T14:50:35;20.30;94.80
26952;DHT22;14507;52.418;13.398;2023-08-08T14:53:01;20.30;95.20
26952;DHT22;14507;52.418;13.398;2023-08-08T14:55:27;20.40;95.10
26952;DHT22;14507;52.418;13.398;2023-08-08T14:57:53;20.40;95.00
26952;DHT22;14507;52.418;13.398;2023-08-08T15:00:18;20.40;94.70
26952;DHT22;14507;52.418;13.398;2023-08-08T15:02:44;20.50;94.70
26952;DHT22;14507;52.418;13.398;2023-08-08T15:05:09;20.50;94.60
26952;DHT22;14507;52.418;13.398;2023-08-08T15:07:36;20.40;94.40
26952;DHT22;14507;52.418;13.398;2023-08-08T15:10:01;20.40;95.50